createdAt,value
2022-12-24T00:01:22.563Z,24.60
2022-12-24T00:03:50.692Z,26.00
2022-12-24T00:06:21.698Z,24.80
2022-12-24T00:08:51.407Z,24.30
2022-12-24T00:11:19.407Z,22.60
2022-12-24T00:13:48.206Z,30.80
2022-12-24T00:16:16.407Z,24.90
2022-12-24T00:18:46.618Z,29.50
2022-12-24T00:21:16.103Z,27.40
2022-12-24T00:23:43.925Z,26.20
2022-12-24T00:26:13.282Z,24.10
2022-12-24T00:28:41.677Z,26.80
2022-12-24T00:31:17.960Z,27.40
2022-12-24T00:33:46.979Z,27.00
2022-12-24T00:36:15.176Z,29.60
2022-12-24T00:38:43.202Z,30.40
2022-12-24T00:41:24.949Z,29.80
2022-12-24T00:43:58.727Z,33.40
2022-12-24T00:46:28.591Z,30.40
2022-12-24T00:48:57.087Z,30.50
2022-12-24T00:51:25.771Z,32.90
2022-12-24T00:53:53.550Z,29.60
2022-12-24T00:56:22.104Z,27.90
2022-12-24T00:58:49.859Z,27.90
2022-12-24T01:01:18.483Z,29.80
2022-12-24T01:03:46.581Z,33.60
2022-12-24T01:06:16.767Z,32.30
2022-12-24T01:08:44.841Z,26.20
2022-12-24T01:11:13.646Z,26.10
2022-12-24T01:13:41.335Z,27.50
2022-12-24T01:16:19.221Z,26.30
2022-12-24T01:18:47.171Z,24.80
2022-12-24T01:21:15.655Z,22.70
2022-12-24T01:23:43.706Z,24.90
2022-12-24T01:26:14.211Z,22.00
2022-12-24T01:28:42.605Z,25.10
2022-12-24T01:31:19.993Z,28.00
2022-12-24T01:33:49.121Z,25.30
2022-12-24T01:36:16.998Z,25.10
2022-12-24T01:38:44.657Z,22.90
2022-12-24T01:41:36.548Z,28.20
2022-12-24T01:44:43.889Z,24.90
2022-12-24T01:47:15.910Z,24.10
2022-12-24T01:49:50.968Z,25.60
2022-12-24T01:52:23.107Z,24.10
2022-12-24T01:54:55.486Z,22.70
2022-12-24T01:57:27.782Z,24.70
2022-12-24T02:00:00.558Z,24.00
2022-12-24T02:02:28.849Z,26.30
2022-12-24T02:05:06.827Z,25.40
2022-12-24T02:07:35.060Z,22.90
2022-12-24T02:10:04.025Z,26.70
2022-12-24T02:12:35.066Z,21.70
2022-12-24T02:15:04.940Z,22.20
2022-12-24T02:18:02.442Z,22.00
2022-12-24T02:20:48.782Z,20.90
2022-12-24T02:23:28.269Z,24.70
2022-12-24T02:26:23.031Z,22.40
2022-12-24T02:29:28.200Z,23.50
2022-12-24T02:32:01.742Z,23.40
2022-12-24T02:34:36.419Z,22.10
2022-12-24T02:37:15.090Z,23.30
2022-12-24T02:39:53.518Z,22.80
2022-12-24T02:42:27.407Z,26.80
2022-12-24T02:45:09.448Z,22.80
2022-12-24T02:50:08.732Z,21.50
2022-12-24T02:52:44.906Z,25.30
2022-12-24T02:55:21.709Z,26.90
2022-12-24T02:58:29.277Z,26.10
2022-12-24T03:01:17.802Z,22.90
2022-12-24T03:04:04.275Z,22.20
2022-12-24T03:06:47.517Z,26.30
2022-12-24T03:09:27.322Z,26.00
2022-12-24T03:12:06.575Z,28.40
2022-12-24T03:14:36.027Z,26.20
2022-12-24T03:17:04.234Z,24.50
2022-12-24T03:19:33.080Z,27.20
2022-12-24T03:22:04.498Z,25.50
2022-12-24T03:24:32.178Z,25.40
2022-12-24T03:27:00.637Z,23.30
2022-12-24T03:29:28.404Z,25.60
2022-12-24T03:32:01.587Z,25.60
2022-12-24T03:34:29.697Z,22.90
2022-12-24T03:36:57.612Z,24.60
2022-12-24T03:39:25.301Z,25.10
2022-12-24T03:41:52.899Z,21.40
2022-12-24T03:44:20.567Z,18.20
2022-12-24T03:46:48.199Z,20.20
2022-12-24T03:49:15.923Z,21.80
2022-12-24T03:51:43.575Z,16.30
2022-12-24T03:54:11.227Z,24.10
2022-12-24T03:56:38.826Z,17.10
2022-12-24T03:59:06.497Z,19.00
2022-12-24T04:01:34.216Z,19.50
2022-12-24T04:04:02.060Z,17.20
2022-12-24T04:06:29.751Z,20.50
2022-12-24T04:08:59.314Z,16.50
2022-12-24T04:11:27.414Z,17.80
2022-12-24T04:13:55.187Z,19.00
2022-12-24T04:16:23.372Z,22.10
2022-12-24T04:18:51.151Z,14.90
2022-12-24T04:21:18.785Z,32.30
2022-12-24T04:23:47.898Z,38.00
2022-12-24T04:26:15.570Z,27.40
2022-12-24T04:28:43.387Z,28.30
2022-12-24T04:31:16.638Z,19.70
2022-12-24T04:33:45.193Z,20.60
2022-12-24T04:36:17.128Z,18.40
2022-12-24T04:38:46.619Z,20.20
2022-12-24T04:41:23.143Z,21.90
2022-12-24T04:43:55.374Z,20.50
2022-12-24T04:46:26.630Z,19.40
2022-12-24T04:48:54.632Z,16.00
2022-12-24T04:51:22.828Z,25.30
2022-12-24T04:53:51.231Z,25.40
2022-12-24T04:56:27.519Z,18.00
2022-12-24T04:58:55.610Z,19.40
2022-12-24T05:01:30.016Z,14.70
2022-12-24T05:03:58.224Z,14.90
2022-12-24T05:06:29.740Z,16.20
2022-12-24T05:08:58.605Z,17.60
2022-12-24T05:11:27.437Z,25.60
2022-12-24T05:13:55.339Z,24.30
2022-12-24T05:16:24.262Z,18.80
2022-12-24T05:18:53.000Z,13.60
2022-12-24T05:21:22.473Z,12.60
2022-12-24T05:24:09.496Z,12.40
2022-12-24T05:26:44.630Z,18.60
2022-12-24T05:29:12.970Z,25.90
2022-12-24T05:31:41.955Z,19.20
2022-12-24T05:34:10.473Z,19.80
2022-12-24T05:36:38.361Z,13.90
2022-12-24T05:39:11.534Z,14.40
2022-12-24T05:41:43.932Z,14.60
2022-12-24T05:44:11.651Z,17.80
2022-12-24T05:46:39.550Z,18.10
2022-12-24T05:49:07.695Z,16.50
2022-12-24T05:51:35.751Z,14.30
2022-12-24T05:54:04.426Z,14.60
2022-12-24T05:56:32.753Z,15.60
2022-12-24T05:59:00.424Z,12.60
2022-12-24T06:01:28.293Z,10.10
2022-12-24T06:03:57.285Z,11.00
2022-12-24T06:06:27.109Z,13.30
2022-12-24T06:08:57.054Z,12.00
2022-12-24T06:11:27.052Z,11.70
2022-12-24T06:13:55.443Z,12.70
2022-12-24T06:16:25.096Z,15.60
2022-12-24T06:21:20.968Z,14.90
2022-12-24T06:23:48.650Z,12.80
2022-12-24T06:26:19.940Z,13.50
2022-12-24T06:28:49.281Z,13.20
2022-12-24T06:31:19.326Z,20.10
2022-12-24T06:33:47.358Z,17.40
2022-12-24T06:36:18.379Z,15.00
2022-12-24T06:38:47.880Z,10.00
2022-12-24T06:41:16.375Z,11.50
2022-12-24T06:43:46.002Z,12.90
2022-12-24T06:48:44.228Z,18.60
2022-12-24T06:51:13.992Z,21.90
2022-12-24T06:53:41.810Z,15.20
2022-12-24T06:56:12.707Z,14.60
2022-12-24T06:58:41.233Z,14.10
2022-12-24T07:01:12.428Z,12.00
2022-12-24T07:06:29.821Z,10.50
2022-12-24T07:08:57.511Z,11.60
2022-12-24T07:11:26.093Z,14.50
2022-12-24T07:13:53.795Z,15.30
2022-12-24T07:16:21.793Z,17.30
2022-12-24T07:18:49.552Z,16.80
2022-12-24T07:21:17.262Z,15.30
2022-12-24T07:23:44.851Z,13.60
2022-12-24T07:26:12.505Z,14.70
2022-12-24T07:28:40.260Z,16.60
2022-12-24T07:31:08.053Z,17.90
2022-12-24T07:33:35.785Z,16.40
2022-12-24T07:36:06.290Z,16.40
2022-12-24T07:38:35.526Z,16.00
2022-12-24T07:41:03.258Z,14.80
2022-12-24T07:43:32.994Z,15.20
2022-12-24T07:46:00.775Z,15.10
2022-12-24T07:48:30.599Z,12.90
2022-12-24T07:53:28.020Z,16.00
2022-12-24T07:55:56.147Z,15.70
2022-12-24T08:03:42.499Z,10.30
2022-12-24T08:06:11.491Z,9.50
2022-12-24T08:08:39.211Z,12.30
2022-12-24T08:11:07.793Z,12.60
2022-12-24T08:13:35.922Z,12.90
2022-12-24T08:16:04.539Z,13.50
2022-12-24T08:18:33.058Z,14.30
2022-12-24T08:21:00.665Z,13.10
2022-12-24T08:23:28.342Z,13.60
2022-12-24T08:25:56.076Z,11.70
2022-12-24T08:28:23.672Z,12.50
2022-12-24T08:30:51.330Z,9.70
2022-12-24T08:33:22.179Z,14.30
2022-12-24T08:35:51.295Z,13.90
2022-12-24T08:38:19.391Z,11.80
2022-12-24T08:40:50.158Z,11.90
2022-12-24T08:43:18.871Z,11.10
2022-12-24T08:45:49.185Z,11.50
2022-12-24T08:48:17.465Z,17.10
2022-12-24T08:50:45.624Z,19.00
2022-12-24T08:53:13.373Z,13.90
2022-12-24T08:55:41.019Z,14.30
2022-12-24T08:58:08.721Z,10.90
2022-12-24T09:00:38.155Z,9.20
2022-12-24T09:06:22.895Z,8.70
2022-12-24T09:08:49.125Z,13.20
2022-12-24T09:11:17.777Z,15.30
2022-12-24T09:13:44.387Z,12.20
2022-12-24T09:16:11.463Z,10.70
2022-12-24T09:18:39.265Z,7.80
2022-12-24T09:21:09.220Z,11.00
2022-12-24T09:23:39.001Z,10.10
2022-12-24T09:28:32.828Z,10.70
2022-12-24T09:31:01.237Z,12.10
2022-12-24T09:33:29.634Z,17.10
2022-12-24T09:35:56.380Z,18.90
2022-12-24T09:38:23.581Z,13.80
2022-12-24T09:40:51.285Z,11.70
2022-12-24T09:43:26.440Z,9.00
2022-12-24T09:46:04.912Z,10.70
2022-12-24T09:48:34.362Z,14.50
2022-12-24T09:51:08.829Z,12.00
2022-12-24T09:53:52.637Z,14.40
2022-12-24T09:56:23.676Z,10.30
2022-12-24T09:59:05.258Z,8.00
2022-12-24T10:01:34.030Z,7.10
2022-12-24T10:04:14.657Z,10.30
2022-12-24T10:06:57.392Z,9.70
2022-12-24T10:09:38.079Z,11.60
2022-12-24T10:12:35.194Z,13.60
2022-12-24T10:15:19.810Z,8.60
2022-12-24T10:18:02.067Z,11.00
2022-12-24T10:20:43.783Z,8.40
2022-12-24T10:23:20.539Z,6.70
2022-12-24T10:26:14.936Z,10.00
2022-12-24T10:31:24.928Z,10.40
2022-12-24T10:33:59.072Z,12.30
2022-12-24T10:36:29.015Z,12.80
2022-12-24T10:38:56.083Z,11.60
2022-12-24T10:41:25.681Z,11.30
2022-12-24T10:46:23.103Z,13.90
2022-12-24T10:48:58.240Z,12.00
2022-12-24T10:51:49.210Z,8.10
2022-12-24T10:54:27.263Z,8.40
2022-12-24T10:57:01.792Z,10.20
2022-12-24T10:59:51.702Z,12.60
2022-12-24T11:02:36.531Z,9.30
2022-12-24T11:05:07.093Z,13.50
2022-12-24T11:07:33.744Z,12.00
2022-12-24T11:10:06.303Z,11.60
2022-12-24T11:12:55.689Z,10.50
2022-12-24T11:15:36.221Z,8.40
2022-12-24T11:18:05.754Z,7.40
2022-12-24T11:20:34.339Z,7.60
2022-12-24T11:23:01.847Z,7.20
2022-12-24T11:25:34.061Z,7.20
2022-12-24T11:28:18.675Z,7.80
2022-12-24T11:30:59.481Z,6.90
2022-12-24T11:33:26.629Z,8.70
2022-12-24T11:36:01.730Z,11.50
2022-12-24T11:38:31.196Z,10.40
2022-12-24T11:43:43.534Z,7.20
2022-12-24T11:46:18.826Z,8.20
2022-12-24T11:48:46.351Z,8.10
2022-12-24T11:51:39.931Z,9.80
2022-12-24T11:54:29.193Z,9.90
2022-12-24T11:56:58.089Z,27.60
2022-12-24T11:59:31.841Z,33.80
2022-12-24T12:05:23.871Z,57.30
2022-12-24T12:07:58.090Z,81.10
2022-12-24T12:10:31.631Z,67.50
2022-12-24T12:13:16.465Z,104.80
2022-12-24T12:16:00.996Z,76.10
2022-12-24T12:18:36.072Z,14.50
2022-12-24T12:21:14.750Z,17.90
2022-12-24T12:23:49.923Z,13.00
2022-12-24T12:26:30.161Z,17.00
2022-12-24T12:29:20.501Z,14.40
2022-12-24T12:31:52.738Z,17.10
2022-12-24T12:34:29.509Z,15.00
2022-12-24T12:37:08.414Z,20.30
2022-12-24T12:39:40.779Z,15.80
2022-12-24T12:42:28.075Z,14.30
2022-12-24T12:45:20.591Z,19.60
2022-12-24T12:48:24.325Z,13.10
2022-12-24T12:51:02.678Z,26.10
2022-12-24T12:54:08.841Z,21.60
2022-12-24T12:56:38.311Z,25.60
2022-12-24T12:59:35.903Z,18.70
2022-12-24T13:02:17.328Z,23.30
2022-12-24T13:04:59.483Z,29.80
2022-12-24T13:07:51.729Z,36.10
2022-12-24T13:10:41.199Z,24.70
2022-12-24T13:13:20.599Z,19.40
2022-12-24T13:16:02.666Z,20.00
2022-12-24T13:18:55.375Z,16.70
2022-12-24T13:21:26.409Z,20.70
2022-12-24T13:24:19.025Z,25.00
2022-12-24T13:27:03.059Z,71.00
2022-12-24T13:29:31.484Z,85.80
2022-12-24T13:32:21.059Z,17.20
2022-12-24T13:34:52.952Z,26.70
2022-12-24T13:37:35.343Z,31.60
2022-12-24T13:40:06.157Z,45.30
2022-12-24T13:42:59.168Z,25.50
2022-12-24T13:45:29.930Z,25.60
2022-12-24T13:48:01.476Z,28.60
2022-12-24T13:50:44.608Z,14.80
2022-12-24T13:53:22.351Z,24.10
2022-12-24T13:55:56.385Z,14.60
2022-12-24T13:58:25.765Z,19.90
2022-12-24T14:00:57.556Z,20.80
2022-12-24T14:06:52.354Z,16.50
2022-12-24T14:09:25.164Z,16.20
2022-12-24T14:11:58.708Z,17.50
2022-12-24T14:14:37.185Z,17.30
2022-12-24T14:17:22.810Z,21.50
2022-12-24T14:20:02.374Z,25.00
2022-12-24T14:22:34.397Z,36.30
2022-12-24T14:25:18.553Z,29.70
2022-12-24T14:27:52.375Z,44.60
2022-12-24T14:30:31.304Z,42.70
2022-12-24T14:32:59.012Z,37.30
2022-12-24T14:35:31.107Z,34.40
2022-12-24T14:38:05.521Z,24.10
2022-12-24T14:40:50.798Z,27.90
2022-12-24T14:43:42.936Z,25.70
2022-12-24T14:46:26.561Z,21.70
2022-12-24T14:49:12.187Z,17.90
2022-12-24T14:52:38.058Z,18.10
2022-12-24T14:55:01.345Z,15.10
2022-12-24T14:57:29.192Z,21.50
2022-12-24T15:00:02.276Z,24.10
2022-12-24T15:05:44.747Z,20.10
2022-12-24T15:08:18.340Z,16.50
2022-12-24T15:10:54.934Z,21.50
2022-12-24T15:13:26.364Z,16.60
2022-12-24T15:15:55.638Z,22.50
2022-12-24T15:18:28.669Z,32.50
2022-12-24T15:21:04.040Z,152.80
2022-12-24T15:26:09.511Z,155.40
2022-12-24T15:28:39.284Z,111.50
2022-12-24T15:31:28.327Z,80.50
2022-12-24T15:33:59.228Z,61.80
2022-12-24T15:36:37.149Z,32.90
2022-12-24T15:39:08.411Z,39.60
2022-12-24T15:42:02.178Z,48.70
2022-12-24T15:44:34.134Z,40.80
2022-12-24T15:47:04.603Z,36.80
2022-12-24T15:49:34.165Z,29.50
2022-12-24T15:52:10.719Z,26.70
2022-12-24T15:54:52.148Z,21.80
2022-12-24T15:57:33.476Z,26.10
2022-12-24T16:00:02.495Z,13.50
2022-12-24T16:05:38.592Z,32.70
2022-12-24T16:08:15.006Z,37.90
2022-12-24T16:10:45.349Z,37.80
2022-12-24T16:13:23.805Z,26.70
2022-12-24T16:15:59.513Z,48.90
2022-12-24T16:18:35.962Z,31.90
2022-12-24T16:21:05.363Z,33.90
2022-12-24T16:23:39.204Z,30.90
2022-12-24T16:26:06.901Z,37.20
2022-12-24T16:28:34.658Z,28.00
2022-12-24T16:31:02.703Z,27.30
2022-12-24T16:33:30.508Z,22.20
2022-12-24T16:35:58.350Z,27.60
2022-12-24T16:38:26.123Z,18.80
2022-12-24T16:40:53.821Z,26.80
2022-12-24T16:43:40.443Z,38.40
2022-12-24T16:46:08.412Z,174.80
2022-12-24T16:48:37.789Z,74.60
2022-12-24T16:51:05.876Z,81.50
2022-12-24T16:53:33.725Z,152.10
2022-12-24T16:56:02.700Z,74.60
2022-12-24T16:58:30.587Z,35.50
2022-12-24T17:00:59.714Z,33.40
2022-12-24T17:03:27.482Z,43.00
2022-12-24T17:05:55.202Z,27.20
2022-12-24T17:08:22.889Z,41.40
2022-12-24T17:10:51.669Z,29.00
2022-12-24T17:13:19.465Z,65.50
2022-12-24T17:15:47.221Z,53.20
2022-12-24T17:18:15.109Z,41.10
2022-12-24T17:20:42.714Z,52.50
2022-12-24T17:23:10.771Z,54.90
2022-12-24T17:25:38.572Z,35.80
2022-12-24T17:28:06.354Z,25.90
2022-12-24T17:30:33.994Z,37.70
2022-12-24T17:33:01.808Z,35.10
2022-12-24T17:35:29.509Z,32.30
2022-12-24T17:37:57.213Z,52.40
2022-12-24T17:40:24.927Z,41.40
2022-12-24T17:42:52.824Z,27.50
2022-12-24T17:45:20.501Z,36.30
2022-12-24T17:47:48.268Z,23.60
2022-12-24T17:50:16.122Z,29.20
2022-12-24T17:52:43.979Z,26.90
2022-12-24T17:55:11.742Z,30.50
2022-12-24T17:57:39.577Z,38.20
2022-12-24T18:00:08.117Z,40.40
2022-12-24T18:05:48.496Z,36.70
2022-12-24T18:08:16.222Z,31.00
2022-12-24T18:10:43.874Z,54.20
2022-12-24T18:13:17.367Z,88.30
2022-12-24T18:15:47.097Z,91.80
2022-12-24T18:18:14.821Z,58.00
2022-12-24T18:20:46.529Z,43.50
2022-12-24T18:23:14.713Z,40.50
2022-12-24T18:25:42.361Z,38.10
2022-12-24T18:28:10.503Z,24.50
2022-12-24T18:30:38.204Z,27.80
2022-12-24T18:33:06.156Z,23.80
2022-12-24T18:35:33.874Z,18.80
2022-12-24T18:38:01.550Z,22.30
2022-12-24T18:40:29.266Z,29.30
2022-12-24T18:42:57.062Z,26.10
2022-12-24T18:45:24.837Z,25.70
2022-12-24T18:47:52.570Z,33.70
2022-12-24T18:50:20.251Z,23.70
2022-12-24T18:52:50.492Z,30.70
2022-12-24T18:55:18.128Z,31.00
2022-12-24T18:57:45.740Z,30.00
2022-12-24T19:00:13.597Z,30.20
2022-12-24T19:02:41.427Z,28.80
2022-12-24T19:05:09.573Z,23.20
2022-12-24T19:07:37.315Z,24.80
2022-12-24T19:10:05.458Z,27.10
2022-12-24T19:12:33.148Z,24.90
2022-12-24T19:15:01.521Z,25.80
2022-12-24T19:17:29.255Z,22.40
2022-12-24T19:19:56.992Z,27.70
2022-12-24T19:22:27.849Z,24.60
2022-12-24T19:24:55.665Z,24.30
2022-12-24T19:27:23.406Z,23.70
2022-12-24T19:29:51.171Z,26.30
2022-12-24T19:32:18.902Z,28.40
2022-12-24T19:34:46.789Z,27.70
2022-12-24T19:37:14.538Z,26.10
2022-12-24T19:39:42.409Z,23.20
2022-12-24T19:42:10.268Z,20.70
2022-12-24T19:44:38.131Z,23.80
2022-12-24T19:47:05.897Z,23.40
2022-12-24T19:49:33.595Z,25.70
2022-12-24T19:52:01.320Z,24.60
2022-12-24T19:54:28.927Z,31.90
2022-12-24T19:56:56.582Z,32.10
2022-12-24T19:59:24.206Z,24.70
2022-12-24T20:01:54.326Z,23.20
2022-12-24T20:04:22.302Z,16.50
2022-12-24T20:06:54.698Z,21.90
2022-12-24T20:09:25.721Z,24.40
2022-12-24T20:11:53.554Z,28.80
2022-12-24T20:14:21.185Z,27.80
2022-12-24T20:16:50.012Z,26.70
2022-12-24T20:19:17.886Z,25.20
2022-12-24T20:21:45.639Z,22.00
2022-12-24T20:24:13.417Z,20.00
2022-12-24T20:26:41.241Z,21.50
2022-12-24T20:29:10.609Z,28.50
2022-12-24T20:31:39.145Z,29.10
2022-12-24T20:34:08.446Z,25.20
2022-12-24T20:36:37.519Z,33.40
2022-12-24T20:39:06.566Z,22.40
2022-12-24T20:41:34.357Z,31.40
2022-12-24T20:44:02.139Z,27.10
2022-12-24T20:46:31.119Z,24.30
2022-12-24T20:48:58.865Z,26.00
2022-12-24T20:51:28.440Z,23.50
2022-12-24T20:53:59.187Z,24.80
2022-12-24T20:56:28.006Z,28.80
2022-12-24T20:58:55.638Z,31.50
2022-12-24T21:01:26.022Z,19.40
2022-12-24T21:06:42.351Z,20.60
2022-12-24T21:09:10.707Z,17.40
2022-12-24T21:11:50.443Z,18.40
2022-12-24T21:14:22.254Z,26.80
2022-12-24T21:16:50.979Z,21.10
2022-12-24T21:19:21.884Z,19.20
2022-12-24T21:21:49.931Z,20.40
2022-12-24T21:24:17.969Z,21.40
2022-12-24T21:26:45.651Z,19.80
2022-12-24T21:29:14.648Z,18.10
2022-12-24T21:31:42.429Z,17.00
2022-12-24T21:34:10.091Z,17.40
2022-12-24T21:36:37.738Z,21.50
2022-12-24T21:39:05.428Z,18.40
2022-12-24T21:41:33.088Z,22.20
2022-12-24T21:44:02.137Z,22.70
2022-12-24T21:46:30.072Z,20.90
2022-12-24T21:49:16.540Z,23.30
2022-12-24T21:51:46.568Z,22.90
2022-12-24T21:54:25.391Z,22.20
2022-12-24T21:57:15.160Z,19.80
2022-12-24T21:59:42.908Z,20.90
2022-12-24T22:02:13.712Z,24.80
2022-12-24T22:04:42.452Z,20.60
2022-12-24T22:07:39.710Z,21.50
2022-12-24T22:10:26.925Z,17.70
2022-12-24T22:12:55.341Z,18.60
2022-12-24T22:25:48.171Z,22.00
2022-12-24T22:28:15.959Z,20.00
2022-12-24T22:30:43.656Z,19.60
2022-12-24T22:33:11.302Z,19.90
2022-12-24T22:35:40.350Z,22.10
2022-12-24T22:38:09.589Z,22.60
2022-12-24T22:40:40.193Z,20.00
2022-12-24T22:43:07.962Z,18.80
2022-12-24T22:45:35.738Z,23.00
2022-12-24T22:48:03.583Z,26.20
2022-12-24T22:50:31.479Z,29.20
2022-12-24T23:03:23.933Z,25.20
2022-12-24T23:05:56.817Z,18.20
2022-12-24T23:08:25.105Z,22.90
2022-12-24T23:10:54.615Z,22.40
2022-12-24T23:13:40.875Z,23.90
2022-12-24T23:16:08.821Z,26.90
2022-12-24T23:18:36.507Z,21.00
2022-12-24T23:21:06.144Z,33.80
2022-12-24T23:26:11.845Z,22.40
2022-12-24T23:28:40.234Z,16.30
2022-12-24T23:31:08.476Z,18.10
2022-12-24T23:33:36.469Z,32.00
2022-12-24T23:36:04.921Z,24.00
2022-12-24T23:38:32.701Z,16.20
2022-12-24T23:41:03.172Z,27.50
2022-12-24T23:43:31.463Z,15.20
2022-12-24T23:45:59.772Z,18.60
2022-12-24T23:48:28.475Z,39.90
2022-12-24T23:51:08.642Z,22.90
2022-12-24T23:53:36.700Z,21.90
2022-12-24T23:56:05.125Z,30.00
2022-12-24T23:58:33.166Z,31.30
